sensor_id;sensor_type;location;lat;lon;timestamp;temperature;humidity
21602;DHT22;10963;50.934;4.668;2024-03-08T00:00:27;5.80;99.90
21602;DHT22;10963;50.934;4.668;2024-03-08T00:02:52;5.90;99.90
21602;DHT22;10963;50.934;4.668;2024-03-08T00:05:19;5.80;99.90
21602;DHT22;10963;50.934;4.668;2024-03-08T00:07:45;5.90;99.90
21602;DHT22;10963;50.934;4.668;2024-03-08T00:10:14;5.90;99.90
21602;DHT22;10963;50.934;4.668;2024-03-08T00:12:46;5.90;99.90
21602;DHT22;10963;50.934;4.668;2024-03-08T00:15:13;5.90;99.90
21602;DHT22;10963;50.934;4.668;2024-03-08T00:17:43;5.80;99.90
21602;DHT22;10963;50.934;4.668;2024-03-08T00:20:10;5.80;99.90
21602;DHT22;10963;50.934;4.668;2024-03-08T00:22:36;5.60;99.90
21602;DHT22;10963;50.934;4.668;2024-03-08T00:25:07;5.60;99.90
21602;DHT22;10963;50.934;4.668;2024-03-08T00:27:38;5.60;99.90
21602;DHT22;10963;50.934;4.668;2024-03-08T00:30:04;5.60;99.90
21602;DHT22;10963;50.934;4.668;2024-03-08T00:32:35;5.60;99.90
21602;DHT22;10963;50.934;4.668;2024-03-08T00:35:02;5.60;99.90
21602;DHT22;10963;50.934;4.668;2024-03-08T00:37:28;5.70;99.90
21602;DHT22;10963;50.934;4.668;2024-03-08T00:39:54;5.60;99.90
21602;DHT22;10963;50.934;4.668;2024-03-08T00:42:20;5.60;99.90
21602;DHT22;10963;50.934;4.668;2024-03-08T00:44:49;5.60;99.90
21602;DHT22;10963;50.934;4.668;2024-03-08T00:47:18;5.70;99.90
21602;DHT22;10963;50.934;4.668;2024-03-08T00:49:43;5.70;99.90
21602;DHT22;10963;50.934;4.668;2024-03-08T00:52:11;5.60;99.90
21602;DHT22;10963;50.934;4.668;2024-03-08T00:54:37;5.60;99.90
21602;DHT22;10963;50.934;4.668;2024-03-08T00:57:06;5.60;99.90
21602;DHT22;10963;50.934;4.668;2024-03-08T00:59:32;5.50;99.90
21602;DHT22;10963;50.934;4.668;2024-03-08T01:01:58;5.40;99.90
21602;DHT22;10963;50.934;4.668;2024-03-08T01:04:26;5.40;99.90
21602;DHT22;10963;50.934;4.668;2024-03-08T01:06:57;5.50;99.90
21602;DHT22;10963;50.934;4.668;2024-03-08T01:09:26;5.40;99.90
21602;DHT22;10963;50.934;4.668;2024-03-08T01:11:55;5.30;99.90
21602;DHT22;10963;50.934;4.668;2024-03-08T01:14:23;5.40;99.90
21602;DHT22;10963;50.934;4.668;2024-03-08T01:16:51;5.40;99.90
21602;DHT22;10963;50.934;4.668;2024-03-08T01:19:16;5.30;99.90
21602;DHT22;10963;50.934;4.668;2024-03-08T01:21:43;5.40;99.90
21602;DHT22;10963;50.934;4.668;2024-03-08T01:24:09;5.30;99.90
21602;DHT22;10963;50.934;4.668;2024-03-08T01:26:37;5.30;99.90
21602;DHT22;10963;50.934;4.668;2024-03-08T01:29:06;5.20;99.90
21602;DHT22;10963;50.934;4.668;2024-03-08T01:31:33;5.20;99.90
21602;DHT22;10963;50.934;4.668;2024-03-08T01:33:59;5.10;99.90
21602;DHT22;10963;50.934;4.668;2024-03-08T01:36:30;5.10;99.90
21602;DHT22;10963;50.934;4.668;2024-03-08T01:38:55;5.10;99.90
21602;DHT22;10963;50.934;4.668;2024-03-08T01:41:21;5.10;99.90
21602;DHT22;10963;50.934;4.668;2024-03-08T01:43:47;5.10;99.90
21602;DHT22;10963;50.934;4.668;2024-03-08T01:46:16;5.00;99.90
21602;DHT22;10963;50.934;4.668;2024-03-08T01:48:43;5.00;99.90
21602;DHT22;10963;50.934;4.668;2024-03-08T01:51:12;5.00;99.90
21602;DHT22;10963;50.934;4.668;2024-03-08T01:53:40;5.00;99.90
21602;DHT22;10963;50.934;4.668;2024-03-08T01:56:07;5.00;99.90
21602;DHT22;10963;50.934;4.668;2024-03-08T01:58:35;5.00;99.90
21602;DHT22;10963;50.934;4.668;2024-03-08T02:01:01;5.00;99.90
21602;DHT22;10963;50.934;4.668;2024-03-08T02:03:29;4.90;99.90
21602;DHT22;10963;50.934;4.668;2024-03-08T02:05:57;4.90;99.90
21602;DHT22;10963;50.934;4.668;2024-03-08T02:08:24;4.80;99.90
21602;DHT22;10963;50.934;4.668;2024-03-08T02:10:52;4.80;99.90
21602;DHT22;10963;50.934;4.668;2024-03-08T02:13:21;4.80;99.90
21602;DHT22;10963;50.934;4.668;2024-03-08T02:15:57;4.80;99.90
21602;DHT22;10963;50.934;4.668;2024-03-08T02:18:24;4.80;99.90
21602;DHT22;10963;50.934;4.668;2024-03-08T02:21:12;4.80;99.90
21602;DHT22;10963;50.934;4.668;2024-03-08T02:23:41;4.70;99.90
21602;DHT22;10963;50.934;4.668;2024-03-08T02:26:07;4.80;99.90
21602;DHT22;10963;50.934;4.668;2024-03-08T02:28:33;4.80;99.90
21602;DHT22;10963;50.934;4.668;2024-03-08T02:31:02;4.90;99.90
21602;DHT22;10963;50.934;4.668;2024-03-08T02:33:28;4.80;99.90
21602;DHT22;10963;50.934;4.668;2024-03-08T02:35:56;4.80;99.90
21602;DHT22;10963;50.934;4.668;2024-03-08T02:38:23;4.70;99.90
21602;DHT22;10963;50.934;4.668;2024-03-08T02:40:54;4.70;99.90
21602;DHT22;10963;50.934;4.668;2024-03-08T02:43:21;4.70;99.90
21602;DHT22;10963;50.934;4.668;2024-03-08T02:45:50;4.70;99.90
21602;DHT22;10963;50.934;4.668;2024-03-08T02:48:18;4.70;99.90
21602;DHT22;10963;50.934;4.668;2024-03-08T02:50:44;4.70;99.90
21602;DHT22;10963;50.934;4.668;2024-03-08T02:53:10;4.70;99.90
21602;DHT22;10963;50.934;4.668;2024-03-08T02:55:37;4.60;99.90
21602;DHT22;10963;50.934;4.668;2024-03-08T02:58:03;4.70;99.90
21602;DHT22;10963;50.934;4.668;2024-03-08T03:00:34;4.60;99.90
21602;DHT22;10963;50.934;4.668;2024-03-08T03:03:02;4.60;99.90
21602;DHT22;10963;50.934;4.668;2024-03-08T03:05:29;4.60;99.90
21602;DHT22;10963;50.934;4.668;2024-03-08T03:07:56;4.60;99.90
21602;DHT22;10963;50.934;4.668;2024-03-08T03:10:23;4.60;99.90
21602;DHT22;10963;50.934;4.668;2024-03-08T03:12:52;4.60;99.90
21602;DHT22;10963;50.934;4.668;2024-03-08T03:15:20;4.50;99.90
21602;DHT22;10963;50.934;4.668;2024-03-08T03:17:47;4.40;99.90
21602;DHT22;10963;50.934;4.668;2024-03-08T03:20:18;4.30;99.90
21602;DHT22;10963;50.934;4.668;2024-03-08T03:22:52;4.30;99.90
21602;DHT22;10963;50.934;4.668;2024-03-08T03:25:21;4.40;99.90
21602;DHT22;10963;50.934;4.668;2024-03-08T03:27:59;4.50;99.90
21602;DHT22;10963;50.934;4.668;2024-03-08T03:30:28;4.50;99.90
21602;DHT22;10963;50.934;4.668;2024-03-08T03:33:01;4.60;99.90
21602;DHT22;10963;50.934;4.668;2024-03-08T03:35:32;4.50;99.90
21602;DHT22;10963;50.934;4.668;2024-03-08T03:37:58;4.50;99.90
21602;DHT22;10963;50.934;4.668;2024-03-08T03:40:29;4.50;99.90
21602;DHT22;10963;50.934;4.668;2024-03-08T03:42:56;4.40;99.90
21602;DHT22;10963;50.934;4.668;2024-03-08T03:45:25;4.30;99.90
21602;DHT22;10963;50.934;4.668;2024-03-08T03:47:51;4.40;99.90
21602;DHT22;10963;50.934;4.668;2024-03-08T03:50:22;4.40;99.90
21602;DHT22;10963;50.934;4.668;2024-03-08T03:52:49;4.20;99.90
21602;DHT22;10963;50.934;4.668;2024-03-08T03:55:20;4.30;99.90
21602;DHT22;10963;50.934;4.668;2024-03-08T03:57:47;4.30;99.90
21602;DHT22;10963;50.934;4.668;2024-03-08T04:00:15;4.20;99.90
21602;DHT22;10963;50.934;4.668;2024-03-08T04:02:42;4.30;99.90
21602;DHT22;10963;50.934;4.668;2024-03-08T04:05:09;4.30;99.90
21602;DHT22;10963;50.934;4.668;2024-03-08T04:07:35;4.20;99.90
21602;DHT22;10963;50.934;4.668;2024-03-08T04:10:02;4.30;99.90
21602;DHT22;10963;50.934;4.668;2024-03-08T04:12:28;4.30;99.90
21602;DHT22;10963;50.934;4.668;2024-03-08T04:14:57;4.20;99.90
21602;DHT22;10963;50.934;4.668;2024-03-08T04:17:23;4.20;99.90
21602;DHT22;10963;50.934;4.668;2024-03-08T04:19:52;4.30;99.90
21602;DHT22;10963;50.934;4.668;2024-03-08T04:22:18;4.20;99.90
21602;DHT22;10963;50.934;4.668;2024-03-08T04:24:46;4.10;99.90
21602;DHT22;10963;50.934;4.668;2024-03-08T04:27:14;4.10;99.90
21602;DHT22;10963;50.934;4.668;2024-03-08T04:29:45;4.20;99.90
21602;DHT22;10963;50.934;4.668;2024-03-08T04:32:10;4.20;99.90
21602;DHT22;10963;50.934;4.668;2024-03-08T04:34:38;4.20;99.90
21602;DHT22;10963;50.934;4.668;2024-03-08T04:37:06;4.30;99.90
21602;DHT22;10963;50.934;4.668;2024-03-08T04:39:32;4.30;99.90
21602;DHT22;10963;50.934;4.668;2024-03-08T04:42:01;4.30;99.90
21602;DHT22;10963;50.934;4.668;2024-03-08T04:44:29;4.30;99.90
21602;DHT22;10963;50.934;4.668;2024-03-08T04:46:55;4.10;99.90
21602;DHT22;10963;50.934;4.668;2024-03-08T04:49:21;4.20;99.90
21602;DHT22;10963;50.934;4.668;2024-03-08T04:51:48;4.10;99.90
21602;DHT22;10963;50.934;4.668;2024-03-08T04:54:16;4.10;99.90
21602;DHT22;10963;50.934;4.668;2024-03-08T04:56:44;4.00;99.90
21602;DHT22;10963;50.934;4.668;2024-03-08T04:59:10;4.10;99.90
21602;DHT22;10963;50.934;4.668;2024-03-08T05:01:35;4.00;99.90
21602;DHT22;10963;50.934;4.668;2024-03-08T05:04:04;4.00;99.90
21602;DHT22;10963;50.934;4.668;2024-03-08T05:06:33;4.10;99.90
21602;DHT22;10963;50.934;4.668;2024-03-08T05:08:59;4.00;99.90
21602;DHT22;10963;50.934;4.668;2024-03-08T05:11:24;3.90;99.90
21602;DHT22;10963;50.934;4.668;2024-03-08T05:13:50;3.90;99.90
21602;DHT22;10963;50.934;4.668;2024-03-08T05:16:16;4.00;99.90
21602;DHT22;10963;50.934;4.668;2024-03-08T05:18:42;4.00;99.90
21602;DHT22;10963;50.934;4.668;2024-03-08T05:21:08;3.90;99.90
21602;DHT22;10963;50.934;4.668;2024-03-08T05:23:36;3.90;99.90
21602;DHT22;10963;50.934;4.668;2024-03-08T05:26:04;4.00;99.90
21602;DHT22;10963;50.934;4.668;2024-03-08T05:28:29;4.00;99.90
21602;DHT22;10963;50.934;4.668;2024-03-08T05:30:55;4.00;99.90
21602;DHT22;10963;50.934;4.668;2024-03-08T05:33:22;4.00;99.90
21602;DHT22;10963;50.934;4.668;2024-03-08T05:35:49;3.90;99.90
21602;DHT22;10963;50.934;4.668;2024-03-08T05:38:17;4.00;99.90
21602;DHT22;10963;50.934;4.668;2024-03-08T05:40:43;4.00;99.90
21602;DHT22;10963;50.934;4.668;2024-03-08T05:43:08;4.00;99.90
21602;DHT22;10963;50.934;4.668;2024-03-08T05:45:34;4.00;99.90
21602;DHT22;10963;50.934;4.668;2024-03-08T05:48:00;3.90;99.90
21602;DHT22;10963;50.934;4.668;2024-03-08T05:50:28;3.90;99.90
21602;DHT22;10963;50.934;4.668;2024-03-08T05:52:56;3.80;99.90
21602;DHT22;10963;50.934;4.668;2024-03-08T05:55:22;3.80;99.90
21602;DHT22;10963;50.934;4.668;2024-03-08T05:57:50;3.90;99.90
21602;DHT22;10963;50.934;4.668;2024-03-08T06:00:16;3.90;99.90
21602;DHT22;10963;50.934;4.668;2024-03-08T06:02:42;3.90;99.90
21602;DHT22;10963;50.934;4.668;2024-03-08T06:05:09;3.80;99.90
21602;DHT22;10963;50.934;4.668;2024-03-08T06:07:38;3.80;99.90
21602;DHT22;10963;50.934;4.668;2024-03-08T06:10:12;3.80;99.90
21602;DHT22;10963;50.934;4.668;2024-03-08T06:12:38;3.90;99.90
21602;DHT22;10963;50.934;4.668;2024-03-08T06:15:11;3.90;99.90
21602;DHT22;10963;50.934;4.668;2024-03-08T06:17:40;3.90;99.90
21602;DHT22;10963;50.934;4.668;2024-03-08T06:20:07;3.90;99.90
21602;DHT22;10963;50.934;4.668;2024-03-08T06:22:38;3.80;99.90
21602;DHT22;10963;50.934;4.668;2024-03-08T06:25:11;3.90;99.90
21602;DHT22;10963;50.934;4.668;2024-03-08T06:27:45;3.80;99.90
21602;DHT22;10963;50.934;4.668;2024-03-08T06:30:12;3.70;99.90
21602;DHT22;10963;50.934;4.668;2024-03-08T06:32:38;3.80;99.90
21602;DHT22;10963;50.934;4.668;2024-03-08T06:35:05;3.80;99.90
21602;DHT22;10963;50.934;4.668;2024-03-08T06:37:34;3.80;99.90
21602;DHT22;10963;50.934;4.668;2024-03-08T06:40:03;3.80;99.90
21602;DHT22;10963;50.934;4.668;2024-03-08T06:42:29;3.80;99.90
21602;DHT22;10963;50.934;4.668;2024-03-08T06:44:59;3.80;99.90
21602;DHT22;10963;50.934;4.668;2024-03-08T06:47:30;3.90;99.90
21602;DHT22;10963;50.934;4.668;2024-03-08T06:49:56;3.90;99.90
21602;DHT22;10963;50.934;4.668;2024-03-08T06:52:24;4.00;99.90
21602;DHT22;10963;50.934;4.668;2024-03-08T06:54:50;4.00;99.90
21602;DHT22;10963;50.934;4.668;2024-03-08T06:57:18;4.00;99.90
21602;DHT22;10963;50.934;4.668;2024-03-08T06:59:43;4.00;99.90
21602;DHT22;10963;50.934;4.668;2024-03-08T07:02:12;4.10;99.90
21602;DHT22;10963;50.934;4.668;2024-03-08T07:04:37;4.20;99.90
21602;DHT22;10963;50.934;4.668;2024-03-08T07:07:04;4.10;99.90
21602;DHT22;10963;50.934;4.668;2024-03-08T07:09:31;4.10;99.90
21602;DHT22;10963;50.934;4.668;2024-03-08T07:11:57;4.00;99.90
21602;DHT22;10963;50.934;4.668;2024-03-08T07:14:24;4.20;99.90
21602;DHT22;10963;50.934;4.668;2024-03-08T07:16:50;4.20;99.90
21602;DHT22;10963;50.934;4.668;2024-03-08T07:19:17;4.30;99.90
21602;DHT22;10963;50.934;4.668;2024-03-08T07:21:46;4.30;99.90
21602;DHT22;10963;50.934;4.668;2024-03-08T07:24:15;4.40;99.90
21602;DHT22;10963;50.934;4.668;2024-03-08T07:27:06;4.30;99.90
21602;DHT22;10963;50.934;4.668;2024-03-08T07:29:35;4.40;99.90
21602;DHT22;10963;50.934;4.668;2024-03-08T07:32:01;4.40;99.90
21602;DHT22;10963;50.934;4.668;2024-03-08T07:34:27;4.50;99.90
21602;DHT22;10963;50.934;4.668;2024-03-08T07:36:53;4.60;99.90
21602;DHT22;10963;50.934;4.668;2024-03-08T07:39:22;4.60;99.90
21602;DHT22;10963;50.934;4.668;2024-03-08T07:41:49;4.80;99.90
21602;DHT22;10963;50.934;4.668;2024-03-08T07:44:20;4.80;99.90
21602;DHT22;10963;50.934;4.668;2024-03-08T07:46:48;4.80;99.90
21602;DHT22;10963;50.934;4.668;2024-03-08T07:49:14;4.90;99.90
21602;DHT22;10963;50.934;4.668;2024-03-08T07:51:43;4.90;99.90
21602;DHT22;10963;50.934;4.668;2024-03-08T07:54:14;4.90;99.90
21602;DHT22;10963;50.934;4.668;2024-03-08T07:56:40;5.00;99.90
21602;DHT22;10963;50.934;4.668;2024-03-08T07:59:08;5.10;99.90
21602;DHT22;10963;50.934;4.668;2024-03-08T08:01:37;5.20;99.90
21602;DHT22;10963;50.934;4.668;2024-03-08T08:04:06;5.20;99.90
21602;DHT22;10963;50.934;4.668;2024-03-08T08:06:34;5.20;99.90
21602;DHT22;10963;50.934;4.668;2024-03-08T08:09:02;5.30;99.90
21602;DHT22;10963;50.934;4.668;2024-03-08T08:11:30;5.20;99.90
21602;DHT22;10963;50.934;4.668;2024-03-08T08:13:56;5.30;99.90
21602;DHT22;10963;50.934;4.668;2024-03-08T08:16:27;5.40;99.90
21602;DHT22;10963;50.934;4.668;2024-03-08T08:18:56;5.50;99.90
21602;DHT22;10963;50.934;4.668;2024-03-08T08:21:21;5.60;99.90
21602;DHT22;10963;50.934;4.668;2024-03-08T08:23:47;5.70;99.90
21602;DHT22;10963;50.934;4.668;2024-03-08T08:26:13;5.90;99.90
21602;DHT22;10963;50.934;4.668;2024-03-08T08:28:43;6.00;99.90
21602;DHT22;10963;50.934;4.668;2024-03-08T08:31:14;6.10;99.90
21602;DHT22;10963;50.934;4.668;2024-03-08T08:33:39;6.00;99.90
21602;DHT22;10963;50.934;4.668;2024-03-08T08:36:09;6.10;99.90
21602;DHT22;10963;50.934;4.668;2024-03-08T08:38:37;6.30;99.90
21602;DHT22;10963;50.934;4.668;2024-03-08T08:41:04;6.40;99.90
21602;DHT22;10963;50.934;4.668;2024-03-08T08:43:29;6.40;99.90
21602;DHT22;10963;50.934;4.668;2024-03-08T08:45:55;6.40;99.90
21602;DHT22;10963;50.934;4.668;2024-03-08T08:48:22;6.50;99.90
21602;DHT22;10963;50.934;4.668;2024-03-08T08:50:48;6.50;99.90
21602;DHT22;10963;50.934;4.668;2024-03-08T08:53:22;6.60;99.90
21602;DHT22;10963;50.934;4.668;2024-03-08T08:55:48;6.60;99.90
21602;DHT22;10963;50.934;4.668;2024-03-08T08:58:14;6.60;99.90
21602;DHT22;10963;50.934;4.668;2024-03-08T09:00:39;6.60;99.90
21602;DHT22;10963;50.934;4.668;2024-03-08T09:03:08;6.80;99.90
21602;DHT22;10963;50.934;4.668;2024-03-08T09:05:33;7.10;99.90
21602;DHT22;10963;50.934;4.668;2024-03-08T09:08:02;7.20;99.90
21602;DHT22;10963;50.934;4.668;2024-03-08T09:10:30;7.20;99.90
21602;DHT22;10963;50.934;4.668;2024-03-08T09:12:59;7.20;99.90
21602;DHT22;10963;50.934;4.668;2024-03-08T09:15:25;7.10;99.90
21602;DHT22;10963;50.934;4.668;2024-03-08T09:17:54;7.00;99.90
21602;DHT22;10963;50.934;4.668;2024-03-08T09:20:21;7.20;99.90
21602;DHT22;10963;50.934;4.668;2024-03-08T09:22:47;7.40;99.90
21602;DHT22;10963;50.934;4.668;2024-03-08T09:25:13;7.40;99.90
21602;DHT22;10963;50.934;4.668;2024-03-08T09:27:39;7.50;99.90
21602;DHT22;10963;50.934;4.668;2024-03-08T09:30:05;7.70;99.90
21602;DHT22;10963;50.934;4.668;2024-03-08T09:32:32;7.90;99.90
21602;DHT22;10963;50.934;4.668;2024-03-08T09:34:58;8.00;99.90
21602;DHT22;10963;50.934;4.668;2024-03-08T09:37:24;8.10;99.90
21602;DHT22;10963;50.934;4.668;2024-03-08T09:39:52;8.10;99.90
21602;DHT22;10963;50.934;4.668;2024-03-08T09:42:18;8.10;99.90
21602;DHT22;10963;50.934;4.668;2024-03-08T09:44:45;8.20;99.90
21602;DHT22;10963;50.934;4.668;2024-03-08T09:47:17;8.20;99.90
21602;DHT22;10963;50.934;4.668;2024-03-08T09:49:45;8.30;99.90
21602;DHT22;10963;50.934;4.668;2024-03-08T09:52:13;8.30;99.90
21602;DHT22;10963;50.934;4.668;2024-03-08T09:54:41;8.30;99.90
21602;DHT22;10963;50.934;4.668;2024-03-08T09:57:10;8.40;99.90
21602;DHT22;10963;50.934;4.668;2024-03-08T09:59:36;8.50;99.90
21602;DHT22;10963;50.934;4.668;2024-03-08T10:02:02;8.50;99.90
21602;DHT22;10963;50.934;4.668;2024-03-08T10:04:28;8.60;99.90
21602;DHT22;10963;50.934;4.668;2024-03-08T10:06:57;8.70;99.90
21602;DHT22;10963;50.934;4.668;2024-03-08T10:09:25;8.70;99.90
21602;DHT22;10963;50.934;4.668;2024-03-08T10:12:01;8.90;99.90
21602;DHT22;10963;50.934;4.668;2024-03-08T10:14:28;9.00;99.90
21602;DHT22;10963;50.934;4.668;2024-03-08T10:16:54;9.10;99.90
21602;DHT22;10963;50.934;4.668;2024-03-08T10:19:27;9.20;99.90
21602;DHT22;10963;50.934;4.668;2024-03-08T10:21:55;9.20;99.90
21602;DHT22;10963;50.934;4.668;2024-03-08T10:24:24;9.20;99.90
21602;DHT22;10963;50.934;4.668;2024-03-08T10:26:55;9.20;99.90
21602;DHT22;10963;50.934;4.668;2024-03-08T10:29:24;9.20;99.90
21602;DHT22;10963;50.934;4.668;2024-03-08T10:31:49;9.20;99.90
21602;DHT22;10963;50.934;4.668;2024-03-08T10:34:16;9.20;99.90
21602;DHT22;10963;50.934;4.668;2024-03-08T10:36:42;9.40;99.90
21602;DHT22;10963;50.934;4.668;2024-03-08T10:41:56;9.70;99.90
21602;DHT22;10963;50.934;4.668;2024-03-08T10:47:19;9.70;99.90
21602;DHT22;10963;50.934;4.668;2024-03-08T10:49:54;9.70;99.90
21602;DHT22;10963;50.934;4.668;2024-03-08T10:52:23;9.70;99.90
21602;DHT22;10963;50.934;4.668;2024-03-08T10:54:52;9.80;99.90
21602;DHT22;10963;50.934;4.668;2024-03-08T10:57:25;9.90;99.90
21602;DHT22;10963;50.934;4.668;2024-03-08T10:59:53;9.90;99.90
21602;DHT22;10963;50.934;4.668;2024-03-08T11:02:21;10.00;99.90
21602;DHT22;10963;50.934;4.668;2024-03-08T11:04:48;10.10;99.90
21602;DHT22;10963;50.934;4.668;2024-03-08T11:07:19;10.30;99.90
21602;DHT22;10963;50.934;4.668;2024-03-08T11:09:50;10.30;99.90
21602;DHT22;10963;50.934;4.668;2024-03-08T11:14:54;10.20;99.90
21602;DHT22;10963;50.934;4.668;2024-03-08T11:20:01;10.40;99.90
21602;DHT22;10963;50.934;4.668;2024-03-08T11:22:32;10.40;99.90
21602;DHT22;10963;50.934;4.668;2024-03-08T11:25:05;10.40;99.90
21602;DHT22;10963;50.934;4.668;2024-03-08T11:27:38;10.50;99.90
21602;DHT22;10963;50.934;4.668;2024-03-08T11:30:07;10.50;99.90
21602;DHT22;10963;50.934;4.668;2024-03-08T11:32:47;10.50;99.90
21602;DHT22;10963;50.934;4.668;2024-03-08T11:35:20;10.60;99.90
21602;DHT22;10963;50.934;4.668;2024-03-08T11:37:46;10.60;99.90
21602;DHT22;10963;50.934;4.668;2024-03-08T11:40:14;10.70;99.90
21602;DHT22;10963;50.934;4.668;2024-03-08T11:42:45;10.70;99.90
21602;DHT22;10963;50.934;4.668;2024-03-08T11:45:20;10.90;99.90
21602;DHT22;10963;50.934;4.668;2024-03-08T11:47:50;10.80;99.90
21602;DHT22;10963;50.934;4.668;2024-03-08T11:50:20;10.80;99.90
21602;DHT22;10963;50.934;4.668;2024-03-08T11:52:49;10.80;99.90
21602;DHT22;10963;50.934;4.668;2024-03-08T11:55:15;10.90;99.90
21602;DHT22;10963;50.934;4.668;2024-03-08T11:57:44;11.00;99.90
21602;DHT22;10963;50.934;4.668;2024-03-08T12:00:18;11.10;99.90
21602;DHT22;10963;50.934;4.668;2024-03-08T12:03:06;11.30;99.90
21602;DHT22;10963;50.934;4.668;2024-03-08T12:05:35;11.50;99.90
21602;DHT22;10963;50.934;4.668;2024-03-08T12:08:07;11.50;99.90
21602;DHT22;10963;50.934;4.668;2024-03-08T12:10:38;11.60;99.90
21602;DHT22;10963;50.934;4.668;2024-03-08T12:13:04;11.70;99.90
21602;DHT22;10963;50.934;4.668;2024-03-08T12:15:33;11.80;99.90
21602;DHT22;10963;50.934;4.668;2024-03-08T12:17:59;12.00;99.90
21602;DHT22;10963;50.934;4.668;2024-03-08T12:20:27;12.10;99.90
21602;DHT22;10963;50.934;4.668;2024-03-08T12:22:56;12.10;99.90
21602;DHT22;10963;50.934;4.668;2024-03-08T12:25:26;12.00;99.90
21602;DHT22;10963;50.934;4.668;2024-03-08T12:27:52;12.00;99.90
21602;DHT22;10963;50.934;4.668;2024-03-08T12:32:55;11.80;99.90
21602;DHT22;10963;50.934;4.668;2024-03-08T12:35:27;12.00;99.90
21602;DHT22;10963;50.934;4.668;2024-03-08T12:37:59;12.00;99.90
21602;DHT22;10963;50.934;4.668;2024-03-08T12:40:32;12.10;99.90
21602;DHT22;10963;50.934;4.668;2024-03-08T12:43:03;12.10;99.90
21602;DHT22;10963;50.934;4.668;2024-03-08T12:45:28;12.00;99.90
21602;DHT22;10963;50.934;4.668;2024-03-08T12:47:57;12.10;99.90
21602;DHT22;10963;50.934;4.668;2024-03-08T12:50:25;12.20;99.90
21602;DHT22;10963;50.934;4.668;2024-03-08T12:52:51;12.20;99.90
21602;DHT22;10963;50.934;4.668;2024-03-08T12:55:22;12.40;99.90
21602;DHT22;10963;50.934;4.668;2024-03-08T12:57:50;12.50;99.90
21602;DHT22;10963;50.934;4.668;2024-03-08T13:00:18;12.50;99.90
21602;DHT22;10963;50.934;4.668;2024-03-08T13:02:47;12.50;99.90
21602;DHT22;10963;50.934;4.668;2024-03-08T13:05:16;12.50;99.90
21602;DHT22;10963;50.934;4.668;2024-03-08T13:07:44;12.50;99.90
21602;DHT22;10963;50.934;4.668;2024-03-08T13:10:15;12.40;99.90
21602;DHT22;10963;50.934;4.668;2024-03-08T13:12:44;12.50;99.90
21602;DHT22;10963;50.934;4.668;2024-03-08T13:15:10;12.60;99.90
21602;DHT22;10963;50.934;4.668;2024-03-08T13:17:41;12.60;99.90
21602;DHT22;10963;50.934;4.668;2024-03-08T13:20:08;12.40;99.90
21602;DHT22;10963;50.934;4.668;2024-03-08T13:22:35;12.60;99.90
21602;DHT22;10963;50.934;4.668;2024-03-08T13:25:01;12.70;99.90
21602;DHT22;10963;50.934;4.668;2024-03-08T13:27:31;12.80;99.90
21602;DHT22;10963;50.934;4.668;2024-03-08T13:29:59;12.80;99.90
21602;DHT22;10963;50.934;4.668;2024-03-08T13:32:25;12.80;99.90
21602;DHT22;10963;50.934;4.668;2024-03-08T13:34:52;12.80;99.90
21602;DHT22;10963;50.934;4.668;2024-03-08T13:37:19;12.80;99.90
21602;DHT22;10963;50.934;4.668;2024-03-08T13:39:47;12.90;99.90
21602;DHT22;10963;50.934;4.668;2024-03-08T13:42:13;12.80;99.90
21602;DHT22;10963;50.934;4.668;2024-03-08T13:44:48;12.80;99.90
21602;DHT22;10963;50.934;4.668;2024-03-08T13:47:18;12.80;99.90
21602;DHT22;10963;50.934;4.668;2024-03-08T13:49:44;12.80;99.90
21602;DHT22;10963;50.934;4.668;2024-03-08T13:52:16;12.80;99.90
21602;DHT22;10963;50.934;4.668;2024-03-08T13:54:46;13.00;99.90
21602;DHT22;10963;50.934;4.668;2024-03-08T13:57:12;13.10;99.90
21602;DHT22;10963;50.934;4.668;2024-03-08T13:59:41;13.10;99.90
21602;DHT22;10963;50.934;4.668;2024-03-08T14:02:06;13.00;99.90
21602;DHT22;10963;50.934;4.668;2024-03-08T14:04:41;13.10;99.90
21602;DHT22;10963;50.934;4.668;2024-03-08T14:07:09;13.20;99.90
21602;DHT22;10963;50.934;4.668;2024-03-08T14:09:37;13.30;99.90
21602;DHT22;10963;50.934;4.668;2024-03-08T14:12:07;13.20;99.90
21602;DHT22;10963;50.934;4.668;2024-03-08T14:14:33;13.10;99.90
21602;DHT22;10963;50.934;4.668;2024-03-08T14:17:01;13.00;99.90
21602;DHT22;10963;50.934;4.668;2024-03-08T14:19:28;13.10;99.90
21602;DHT22;10963;50.934;4.668;2024-03-08T14:21:56;13.30;99.90
21602;DHT22;10963;50.934;4.668;2024-03-08T14:24:24;13.30;99.90
21602;DHT22;10963;50.934;4.668;2024-03-08T14:26:52;13.30;99.90
21602;DHT22;10963;50.934;4.668;2024-03-08T14:29:18;13.40;99.90
21602;DHT22;10963;50.934;4.668;2024-03-08T14:31:44;13.50;99.90
21602;DHT22;10963;50.934;4.668;2024-03-08T14:34:12;13.60;99.90
21602;DHT22;10963;50.934;4.668;2024-03-08T14:36:40;13.50;99.90
21602;DHT22;10963;50.934;4.668;2024-03-08T14:39:08;13.50;99.90
21602;DHT22;10963;50.934;4.668;2024-03-08T14:41:34;13.50;99.90
21602;DHT22;10963;50.934;4.668;2024-03-08T14:44:00;13.50;99.90
21602;DHT22;10963;50.934;4.668;2024-03-08T14:46:27;13.40;99.90
21602;DHT22;10963;50.934;4.668;2024-03-08T14:48:53;13.30;99.90
21602;DHT22;10963;50.934;4.668;2024-03-08T14:51:23;13.30;99.90
21602;DHT22;10963;50.934;4.668;2024-03-08T14:53:52;13.40;99.90
21602;DHT22;10963;50.934;4.668;2024-03-08T14:56:20;13.40;99.90
21602;DHT22;10963;50.934;4.668;2024-03-08T14:58:46;13.40;99.90
21602;DHT22;10963;50.934;4.668;2024-03-08T15:01:15;13.50;99.90
21602;DHT22;10963;50.934;4.668;2024-03-08T15:03:44;13.40;99.90
21602;DHT22;10963;50.934;4.668;2024-03-08T15:06:13;13.30;99.90
21602;DHT22;10963;50.934;4.668;2024-03-08T15:08:41;13.20;99.90
21602;DHT22;10963;50.934;4.668;2024-03-08T15:11:07;13.30;99.90
21602;DHT22;10963;50.934;4.668;2024-03-08T15:13:34;13.40;99.90
21602;DHT22;10963;50.934;4.668;2024-03-08T15:16:10;13.30;99.90
21602;DHT22;10963;50.934;4.668;2024-03-08T15:18:46;13.40;99.90
21602;DHT22;10963;50.934;4.668;2024-03-08T15:21:23;13.40;99.90
21602;DHT22;10963;50.934;4.668;2024-03-08T15:23:53;13.50;99.90
21602;DHT22;10963;50.934;4.668;2024-03-08T15:26:20;13.30;99.90
21602;DHT22;10963;50.934;4.668;2024-03-08T15:28:48;13.30;99.90
21602;DHT22;10963;50.934;4.668;2024-03-08T15:31:17;13.20;99.90
21602;DHT22;10963;50.934;4.668;2024-03-08T15:33:46;13.20;99.90
21602;DHT22;10963;50.934;4.668;2024-03-08T15:36:17;13.30;99.90
21602;DHT22;10963;50.934;4.668;2024-03-08T15:38:46;13.40;99.90
21602;DHT22;10963;50.934;4.668;2024-03-08T15:41:17;13.40;99.90
21602;DHT22;10963;50.934;4.668;2024-03-08T15:43:45;13.30;99.90
21602;DHT22;10963;50.934;4.668;2024-03-08T15:46:11;13.20;99.90
21602;DHT22;10963;50.934;4.668;2024-03-08T15:48:38;13.20;99.90
21602;DHT22;10963;50.934;4.668;2024-03-08T15:51:06;13.30;99.90
21602;DHT22;10963;50.934;4.668;2024-03-08T15:53:35;13.30;99.90
21602;DHT22;10963;50.934;4.668;2024-03-08T15:56:03;13.30;99.90
21602;DHT22;10963;50.934;4.668;2024-03-08T15:58:33;13.20;99.90
21602;DHT22;10963;50.934;4.668;2024-03-08T16:01:01;13.10;99.90